createdAt,value
2022-08-08T00:02:31.667Z,98027.13
2022-08-08T00:07:38.438Z,98033.75
2022-08-08T00:12:56.793Z,98024.38
2022-08-08T00:18:05.069Z,98020.16
2022-08-08T00:23:14.770Z,98025.66
2022-08-08T00:28:35.443Z,98015.38
2022-08-08T00:34:17.872Z,98007.09
2022-08-08T00:40:43.785Z,98026.03
2022-08-08T00:45:21.727Z,98015.41
2022-08-08T00:51:18.251Z,98022.47
2022-08-08T00:57:03.258Z,98020.78
2022-08-08T01:03:59.285Z,98015.09
2022-08-08T01:08:38.985Z,98021.78
2022-08-08T01:14:53.468Z,98018.47
2022-08-08T01:20:28.960Z,98017.84
2022-08-08T01:26:11.198Z,98017.34
2022-08-08T01:32:15.007Z,98032.69
2022-08-08T01:37:59.129Z,98029.06
2022-08-08T01:43:34.655Z,98019.16
2022-08-08T01:48:53.704Z,98023.13
2022-08-08T01:55:27.112Z,98026.63
2022-08-08T02:00:03.076Z,98030.25
2022-08-08T02:05:58.704Z,98028.25
2022-08-08T02:11:23.591Z,98028.03
2022-08-08T02:16:38.807Z,98030.97
2022-08-08T02:22:13.242Z,98031.09
2022-08-08T02:27:25.681Z,98031.19
2022-08-08T02:33:11.008Z,98021.16
2022-08-08T02:38:32.836Z,98021.91
2022-08-08T02:44:36.933Z,98015.84
2022-08-08T02:50:17.646Z,98023.03
2022-08-08T02:56:01.716Z,98030.63
2022-08-08T03:01:50.167Z,98028.78
2022-08-08T03:07:41.341Z,98034.72
2022-08-08T03:15:56.482Z,98027.00
2022-08-08T03:19:26.294Z,98028.09
2022-08-08T03:24:33.499Z,98025.53
2022-08-08T03:29:56.030Z,98029.78
2022-08-08T03:35:02.770Z,98032.41
2022-08-08T03:40:10.983Z,98035.13
2022-08-08T03:46:03.202Z,98031.97
2022-08-08T03:50:58.016Z,98045.78
2022-08-08T03:56:09.660Z,98055.34
2022-08-08T04:01:23.776Z,98048.88
2022-08-08T04:06:32.578Z,98061.78
2022-08-08T04:11:48.437Z,98054.78
2022-08-08T04:17:46.585Z,98065.34
2022-08-08T04:22:46.571Z,98072.31
2022-08-08T04:28:03.262Z,98076.31
2022-08-08T04:33:21.387Z,98081.78
2022-08-08T04:38:26.640Z,98085.00
2022-08-08T04:43:45.371Z,98088.72
2022-08-08T04:48:55.243Z,98089.31
2022-08-08T04:54:39.316Z,98086.56
2022-08-08T04:59:29.846Z,98088.28
2022-08-08T05:04:36.117Z,98093.72
2022-08-08T05:09:41.041Z,98103.69
2022-08-08T05:14:47.259Z,98094.69
2022-08-08T05:20:06.204Z,98094.16
2022-08-08T05:25:21.258Z,98104.53
2022-08-08T05:30:28.248Z,98101.44
2022-08-08T05:35:35.828Z,98109.06
2022-08-08T05:40:48.970Z,98106.31
2022-08-08T05:46:03.724Z,98104.00
2022-08-08T05:51:15.647Z,98107.59
2022-08-08T05:56:23.889Z,98105.69
2022-08-08T06:01:56.656Z,98112.03
2022-08-08T06:07:01.560Z,98107.13
2022-08-08T06:12:08.140Z,98105.44
2022-08-08T06:17:21.102Z,98108.88
2022-08-08T06:22:38.259Z,98106.28
2022-08-08T06:27:55.164Z,98107.38
2022-08-08T06:33:09.316Z,98109.75
2022-08-08T06:38:19.314Z,98108.09
2022-08-08T06:43:35.650Z,98103.16
2022-08-08T06:48:54.881Z,98109.19
2022-08-08T06:54:01.037Z,98112.41
2022-08-08T06:59:12.334Z,98102.63
2022-08-08T07:04:39.755Z,98104.59
2022-08-08T07:09:59.249Z,98105.88
2022-08-08T07:15:23.241Z,98100.78
2022-08-08T07:20:40.522Z,98099.78
2022-08-08T07:25:57.134Z,98099.78
2022-08-08T07:31:05.017Z,98106.78
2022-08-08T07:36:12.842Z,98099.91
2022-08-08T07:41:24.692Z,98109.09
2022-08-08T07:46:31.152Z,98116.31
2022-08-08T07:51:53.548Z,98117.16
2022-08-08T07:57:17.137Z,98110.81
2022-08-08T08:02:35.445Z,98120.94
2022-08-08T08:07:57.823Z,98116.59
2022-08-08T08:13:25.757Z,98117.44
2022-08-08T08:18:55.702Z,98121.31
2022-08-08T08:24:05.401Z,98121.81
2022-08-08T08:29:10.156Z,98112.63
2022-08-08T08:34:21.223Z,98110.34
2022-08-08T08:40:00.147Z,98121.63
2022-08-08T08:44:53.914Z,98111.59
2022-08-08T08:49:58.499Z,98116.75
2022-08-08T08:55:05.416Z,98119.25
2022-08-08T09:00:15.546Z,98115.75
2022-08-08T09:05:29.098Z,98111.38
2022-08-08T09:10:50.944Z,98110.91
2022-08-08T09:16:03.354Z,98117.38
2022-08-08T09:21:59.387Z,98119.97
2022-08-08T09:26:49.932Z,98117.69
2022-08-08T09:32:04.233Z,98106.13
2022-08-08T09:38:00.810Z,98096.00
2022-08-08T09:43:16.763Z,98102.03
2022-08-08T09:48:33.713Z,98097.56
2022-08-08T09:54:03.360Z,98108.28
2022-08-08T09:59:50.285Z,98103.63
2022-08-08T10:04:47.379Z,98091.63
2022-08-08T10:09:59.761Z,98083.44
2022-08-08T10:15:18.004Z,98088.28
2022-08-08T10:20:27.892Z,98075.25
2022-08-08T10:25:56.308Z,98073.16
2022-08-08T10:31:46.723Z,98063.84
2022-08-08T10:36:49.486Z,98062.00
2022-08-08T10:42:15.514Z,98062.66
2022-08-08T10:47:22.160Z,98060.59
2022-08-08T10:52:30.822Z,98066.22
2022-08-08T10:57:45.209Z,98049.69
2022-08-08T11:02:57.005Z,98061.44
2022-08-08T11:08:31.567Z,98046.63
2022-08-08T11:13:30.248Z,98041.63
2022-08-08T11:18:39.893Z,98044.19
2022-08-08T11:23:45.112Z,98040.53
2022-08-08T11:29:08.493Z,98045.63
2022-08-08T11:34:13.907Z,98044.16
2022-08-08T11:39:36.982Z,98043.34
2022-08-08T11:44:41.690Z,98044.81
2022-08-08T11:49:51.911Z,98044.28
2022-08-08T11:54:56.553Z,98036.72
2022-08-08T12:00:05.605Z,98030.50
2022-08-08T12:05:17.397Z,98029.13
2022-08-08T12:10:24.259Z,98024.88
2022-08-08T12:15:39.925Z,98030.47
2022-08-08T12:20:48.596Z,98033.09
2022-08-08T12:25:56.761Z,98018.06
2022-08-08T12:31:07.177Z,98010.13
2022-08-08T12:36:16.423Z,98026.91
2022-08-08T12:41:34.076Z,98031.22
2022-08-08T12:46:39.613Z,98016.44
2022-08-08T12:51:58.516Z,98017.78
2022-08-08T12:57:17.156Z,98011.50
2022-08-08T13:02:28.273Z,98009.63
2022-08-08T13:08:04.156Z,98011.53
2022-08-08T13:13:06.231Z,98003.94
2022-08-08T13:18:13.784Z,98003.03
2022-08-08T13:23:35.942Z,98002.66
2022-08-08T13:28:42.039Z,97995.59
2022-08-08T13:33:49.870Z,98004.16
2022-08-08T13:39:00.059Z,97992.13
2022-08-08T13:44:04.873Z,97986.78
2022-08-08T13:50:36.644Z,97997.94
2022-08-08T13:54:49.442Z,97995.09
2022-08-08T14:00:07.754Z,97992.28
2022-08-08T14:05:20.332Z,97982.81
2022-08-08T14:10:33.598Z,97991.63
2022-08-08T14:15:46.242Z,97995.53
2022-08-08T14:21:02.729Z,97986.47
2022-08-08T14:26:10.875Z,97991.06
2022-08-08T14:31:20.169Z,97982.69
2022-08-08T14:36:34.750Z,97985.25
2022-08-08T14:41:53.691Z,97983.88
2022-08-08T14:47:00.158Z,97987.66
2022-08-08T14:52:09.976Z,97985.97
2022-08-08T14:57:16.876Z,97977.13
2022-08-08T15:02:25.729Z,97984.44
2022-08-08T15:07:39.318Z,97981.34
2022-08-08T15:12:48.646Z,97984.06
2022-08-08T15:17:52.589Z,97974.94
2022-08-08T15:22:59.400Z,97987.09
2022-08-08T15:28:33.937Z,97978.22
2022-08-08T15:33:58.550Z,97987.91
2022-08-08T15:38:59.397Z,97988.78
2022-08-08T15:44:04.592Z,97978.94
2022-08-08T15:49:08.154Z,97981.22
2022-08-08T15:54:18.851Z,97973.34
2022-08-08T16:00:25.265Z,97967.41
2022-08-08T16:05:13.668Z,97973.34
2022-08-08T16:13:27.171Z,97972.44
2022-08-08T16:15:57.998Z,97972.03
2022-08-08T16:21:26.678Z,97966.22
2022-08-08T16:26:35.537Z,97971.16
2022-08-08T16:31:48.751Z,97969.63
2022-08-08T16:36:53.717Z,97977.59
2022-08-08T16:42:01.273Z,97987.00
2022-08-08T16:47:39.804Z,97983.00
2022-08-08T16:55:07.213Z,97977.63
2022-08-08T16:58:17.747Z,97981.19
2022-08-08T17:03:24.513Z,97976.16
2022-08-08T17:08:39.451Z,97985.38
2022-08-08T17:14:00.764Z,97989.97
2022-08-08T17:19:07.301Z,97981.63
2022-08-08T17:24:27.059Z,98006.63
2022-08-08T17:29:36.207Z,98002.19
2022-08-08T17:34:54.439Z,98002.34
2022-08-08T17:40:12.692Z,98005.66
2022-08-08T17:45:22.983Z,98014.38
2022-08-08T17:50:29.462Z,98018.97
2022-08-08T17:56:03.500Z,98020.59
2022-08-08T18:00:57.893Z,98030.03
2022-08-08T18:06:06.785Z,98027.31
2022-08-08T18:11:26.411Z,98028.00
2022-08-08T18:16:33.294Z,98032.16
2022-08-08T18:22:01.489Z,98048.78
2022-08-08T18:27:06.179Z,98057.75
2022-08-08T18:32:21.528Z,98062.31
2022-08-08T18:37:34.315Z,98064.22
2022-08-08T18:42:50.662Z,98068.78
2022-08-08T18:47:54.806Z,98073.25
2022-08-08T18:53:01.034Z,98082.88
2022-08-08T18:58:07.451Z,98091.28
2022-08-08T19:03:14.326Z,98098.34
2022-08-08T19:08:28.483Z,98110.56
2022-08-08T19:13:47.383Z,98125.66
2022-08-08T19:19:01.883Z,98128.94
2022-08-08T19:24:38.678Z,98130.81
2022-08-08T19:29:35.623Z,98143.72
2022-08-08T19:34:41.558Z,98139.59
2022-08-08T19:39:51.029Z,98141.59
2022-08-08T19:45:05.217Z,98148.13
2022-08-08T19:50:15.079Z,98142.47
2022-08-08T19:55:23.363Z,98150.72
2022-08-08T20:00:32.766Z,98151.81
2022-08-08T20:06:15.655Z,98154.47
2022-08-08T20:11:04.285Z,98164.16
2022-08-08T20:16:08.686Z,98168.22
2022-08-08T20:21:14.499Z,98173.03
2022-08-08T20:26:19.667Z,98178.63
2022-08-08T20:31:47.295Z,98187.59
2022-08-08T20:36:56.596Z,98190.22
2022-08-08T20:42:01.955Z,98187.03
2022-08-08T20:47:22.898Z,98180.91
2022-08-08T20:52:29.826Z,98189.25
2022-08-08T20:57:36.105Z,98192.09
2022-08-08T21:02:52.873Z,98180.16
2022-08-08T21:08:36.166Z,98191.47
2022-08-08T21:13:23.452Z,98189.19
2022-08-08T21:18:44.062Z,98188.09
2022-08-08T21:24:03.125Z,98188.41
2022-08-08T21:29:11.832Z,98194.31
2022-08-08T21:34:18.724Z,98191.31
2022-08-08T21:39:41.386Z,98183.19
2022-08-08T21:44:59.020Z,98194.69
2022-08-08T21:50:08.277Z,98199.09
2022-08-08T21:56:18.546Z,98211.00
2022-08-08T22:00:40.876Z,98202.16
2022-08-08T22:05:45.057Z,98200.56
2022-08-08T22:10:52.694Z,98208.56
2022-08-08T22:16:00.795Z,98203.03
2022-08-08T22:21:14.020Z,98210.09
2022-08-08T22:26:28.597Z,98221.41
2022-08-08T22:31:35.898Z,98216.75
2022-08-08T22:36:42.626Z,98219.22
2022-08-08T22:41:46.666Z,98216.06
2022-08-08T22:46:54.521Z,98213.59
2022-08-08T22:51:59.179Z,98214.84
2022-08-08T22:57:11.683Z,98224.41
2022-08-08T23:02:24.612Z,98213.38
2022-08-08T23:07:49.188Z,98218.34
2022-08-08T23:12:54.555Z,98215.59
2022-08-08T23:18:00.119Z,98209.56
2022-08-08T23:23:03.775Z,98221.19
2022-08-08T23:28:07.495Z,98224.81
2022-08-08T23:33:13.614Z,98224.59
2022-08-08T23:38:24.217Z,98217.47
2022-08-08T23:43:31.820Z,98217.47
2022-08-08T23:49:07.765Z,98215.94
2022-08-08T23:54:41.200Z,98217.03
2022-08-08T23:59:37.888Z,98220.78
